Time;durP1;ratioP1;P1;durP2;ratioP2;P2;SDS_P1;SDS_P2;PMS_P1;PMS_P2;Temp;Humidity;BMP_temperature;BMP_pressure;BME280_temperature;BME280_humidity;BME280_pressure;Samples;Min_cycle;Max_cycle;Signal;HPM_P1;HPM_P2
2021/11/20 00:01:23;;;;;;;10.13;1.33;;;;;;;10.33;55.06;102541.09;5004209;28;20491;-67
2021/11/20 00:03:48;;;;;;;17.95;2.05;;;;;;;9.74;56.68;102541.69;4984498;28;20052;-67
2021/11/20 00:06:25;;;;;;;13.10;1.65;;;;;;;9.74;56.76;102539.06;4989913;28;20045;-67
2021/11/20 00:08:51;;;;;;;15.43;2.65;;;;;;;10.19;55.66;102538.63;4981721;28;20100;-67
2021/11/20 00:11:22;;;;;;;22.05;3.00;;;;;;;9.90;56.05;102528.50;5007572;28;20038;-67
2021/11/20 00:13:49;;;;;;;20.77;2.53;;;;;;;9.66;56.95;102535.69;4973697;28;20504;-66
2021/11/20 00:16:15;;;;;;;11.25;2.15;;;;;;;9.76;56.70;102533.84;4972723;28;20033;-66
2021/11/20 00:18:42;;;;;;;16.98;2.55;;;;;;;9.37;58.68;102536.81;4989022;28;20042;-66
2021/11/20 00:21:22;;;;;;;15.52;2.42;;;;;;;9.73;57.49;102534.75;4990867;28;20029;-69
2021/11/20 00:23:56;;;;;;;21.80;2.53;;;;;;;10.05;56.39;102527.47;4995836;28;20109;-67
2021/11/20 00:26:29;;;;;;;13.88;2.38;;;;;;;9.91;56.55;102533.72;5007868;28;20034;-67
2021/11/20 00:31:32;;;;;;;14.73;3.17;;;;;;;9.68;57.50;102523.50;4989695;28;20038;-66
2021/11/20 00:33:59;;;;;;;13.20;2.03;;;;;;;10.11;56.41;102525.66;4987664;28;20461;-67
2021/11/20 00:36:25;;;;;;;17.05;2.45;;;;;;;10.14;55.93;102517.78;4974345;28;20029;-67
2021/11/20 00:38:51;;;;;;;16.10;2.20;;;;;;;10.09;56.22;102519.59;4991867;28;20056;-66
2021/11/20 00:41:20;;;;;;;23.92;2.45;;;;;;;9.43;58.78;102529.81;5007622;28;20060;-67
2021/11/20 00:43:48;;;;;;;13.88;2.20;;;;;;;9.93;56.70;102518.06;4974856;28;20042;-68
2021/11/20 00:46:16;;;;;;;16.00;1.80;;;;;;;9.74;56.89;102512.97;4988084;28;20084;-68
2021/11/20 00:48:45;;;;;;;16.90;2.42;;;;;;;9.96;56.88;102515.38;4986761;28;20041;-67
2021/11/20 00:51:13;;;;;;;13.38;1.63;;;;;;;9.97;56.78;102522.38;5006248;28;20442;-67
2021/11/20 00:53:41;;;;;;;25.25;2.50;;;;;;;10.47;55.32;102518.25;4979337;28;20046;-68
2021/11/20 00:56:07;;;;;;;21.05;2.05;;;;;;;10.22;55.98;102513.34;4988345;28;20060;-67
2021/11/20 00:58:33;;;;;;;18.55;1.83;;;;;;;10.14;55.82;102504.72;4987036;28;20042;-67
2021/11/20 01:01:03;;;;;;;13.73;1.90;;;;;;;9.77;57.17;102512.09;5004903;28;20041;-67
2021/11/20 01:03:29;;;;;;;12.27;3.35;;;;;;;9.95;56.32;102508.44;4985547;28;20033;-67
2021/11/20 01:05:56;;;;;;;13.27;2.80;;;;;;;10.09;55.95;102500.44;4986276;28;20084;-67
2021/11/20 01:08:24;;;;;;;13.13;4.30;;;;;;;10.07;55.84;102516.13;4986095;28;20038;-69
2021/11/20 01:10:55;;;;;;;21.00;4.55;;;;;;;9.67;57.00;102521.75;4977225;28;20060;-67
2021/11/20 01:13:21;;;;;;;22.33;5.03;;;;;;;9.98;56.17;102511.00;5004589;28;20042;-67
2021/11/20 01:15:58;;;;;;;13.48;4.95;;;;;;;9.77;56.46;102506.88;5007588;28;20037;-68
2021/11/20 01:18:27;;;;;;;21.70;5.53;;;;;;;8.91;59.23;102500.66;4982818;28;20038;-69
2021/11/20 01:21:01;;;;;;;13.18;4.85;;;;;;;9.66;57.00;102496.53;4992339;28;20045;-67
2021/11/20 01:23:31;;;;;;;19.73;5.55;;;;;;;9.19;57.77;102495.22;4979071;28;20066;-68
2021/11/20 01:26:04;;;;;;;15.63;5.13;;;;;;;9.50;57.14;102498.44;4986035;28;20045;-68
2021/11/20 01:28:37;;;;;;;24.98;4.68;;;;;;;9.45;57.50;102508.03;4984369;28;20053;-68
2021/11/20 01:31:12;;;;;;;13.68;3.70;;;;;;;9.67;56.80;102497.41;5002096;28;20331;-68
2021/11/20 01:33:42;;;;;;;16.95;4.18;;;;;;;9.51;57.00;102501.91;4983582;28;20048;-68
2021/11/20 01:36:15;;;;;;;13.13;4.90;;;;;;;9.76;56.47;102503.38;4970262;28;20037;-67
2021/11/20 01:38:45;;;;;;;12.70;5.53;;;;;;;9.69;56.74;102509.53;4987185;28;20470;-66
2021/11/20 01:41:30;;;;;;;17.98;5.43;;;;;;;9.10;57.89;102500.53;4990577;28;20464;-67
2021/11/20 01:44:19;;;;;;;31.25;6.45;;;;;;;9.26;57.98;102494.31;4984814;28;20034;-68
2021/11/20 01:46:51;;;;;;;19.33;5.63;;;;;;;9.15;58.14;102493.53;4978623;28;20133;-67
2021/11/20 01:49:31;;;;;;;16.05;5.57;;;;;;;9.51;57.11;102486.25;4970383;28;20056;-68
2021/11/20 01:52:11;;;;;;;20.02;5.85;;;;;;;9.28;57.81;102495.16;4982400;28;20125;-69
2021/11/20 01:54:48;;;;;;;23.30;5.70;;;;;;;9.39;57.17;102493.31;4988236;28;20038;-69
2021/11/20 01:57:38;;;;;;;16.30;5.45;;;;;;;9.03;58.35;102483.19;4985341;28;20084;-68
2021/11/20 02:00:16;;;;;;;21.73;5.30;;;;;;;9.58;56.68;102493.97;4980376;28;20045;-69
2021/11/20 02:02:55;;;;;;;13.27;6.05;;;;;;;9.37;56.96;102484.63;5002763;28;20474;-68
2021/11/20 02:05:42;;;;;;;19.90;4.93;;;;;;;9.44;57.05;102476.75;4984334;28;20431;-71
2021/11/20 02:08:35;;;;;;;15.10;5.22;;;;;;;9.67;56.09;102472.16;4983265;28;20037;-70
2021/11/20 02:11:13;;;;;;;13.00;4.50;;;;;;;9.31;57.16;102478.59;4980685;28;21008;-67
2021/11/20 02:13:39;;;;;;;19.67;5.07;;;;;;;9.45;57.02;102475.84;4985013;28;20034;-68
2021/11/20 02:16:12;;;;;;;16.73;5.50;;;;;;;9.30;57.21;102472.53;4983839;28;20183;-67
2021/11/20 02:18:46;;;;;;;12.48;5.07;;;;;;;8.89;58.06;102478.94;4984608;28;20050;-67
2021/11/20 02:21:39;;;;;;;18.10;5.07;;;;;;;9.68;56.02;102478.22;4976139;28;20112;-66
2021/11/20 02:24:04;;;;;;;17.27;4.72;;;;;;;9.45;56.54;102462.81;4983017;28;20030;-67
2021/11/20 02:26:36;;;;;;;17.83;5.43;;;;;;;9.47;56.79;102480.19;4989003;28;20512;-67
2021/11/20 02:29:07;;;;;;;14.73;4.47;;;;;;;9.59;56.16;102468.78;4986940;28;20368;-67
2021/11/20 02:31:57;;;;;;;15.38;4.95;;;;;;;9.57;56.19;102470.53;4961237;28;20044;-67
2021/11/20 02:34:37;;;;;;;10.27;4.57;;;;;;;9.49;56.27;102467.13;4985461;28;20117;-66
2021/11/20 02:37:07;;;;;;;12.32;4.97;;;;;;;9.58;56.10;102465.28;4987354;28;20050;-68
2021/11/20 02:39:39;;;;;;;12.70;5.43;;;;;;;9.34;57.02;102469.00;4974349;28;20030;-67
2021/11/20 02:42:12;;;;;;;14.90;5.00;;;;;;;9.47;56.27;102456.69;4984878;28;20053;-67
2021/11/20 02:44:40;;;;;;;18.85;5.57;;;;;;;9.69;55.93;102462.56;4989960;28;20058;-67
2021/11/20 02:47:19;;;;;;;12.98;5.25;;;;;;;9.72;55.27;102459.94;4974823;28;20566;-67
2021/11/20 02:49:45;;;;;;;18.98;5.88;;;;;;;9.64;55.85;102461.75;4988170;28;20123;-67
2021/11/20 02:52:18;;;;;;;12.48;5.50;;;;;;;9.33;56.74;102455.97;4987685;28;20053;-67
2021/11/20 02:54:47;;;;;;;20.55;7.40;;;;;;;9.50;56.30;102459.28;4989510;28;20678;-67
2021/11/20 02:57:20;;;;;;;17.70;5.80;;;;;;;9.39;56.69;102462.00;4984925;28;20517;-68
2021/11/20 02:59:46;;;;;;;15.48;6.45;;;;;;;9.10;57.33;102453.59;4984495;28;20639;-68
2021/11/20 03:02:18;;;;;;;12.25;5.45;;;;;;;9.67;55.83;102450.41;4982596;28;20867;-66
2021/11/20 03:04:45;;;;;;;20.50;6.10;;;;;;;9.49;56.38;102446.25;4967757;28;20037;-69
2021/11/20 03:07:11;;;;;;;18.05;4.78;;;;;;;9.69;55.52;102444.28;4983126;28;20038;-67
2021/11/20 03:09:40;;;;;;;13.00;5.45;;;;;;;9.36;56.14;102437.66;4986060;28;20080;-67
2021/11/20 03:12:14;;;;;;;13.38;6.15;;;;;;;9.85;55.12;102441.53;4987418;28;20045;-67
2021/11/20 03:14:44;;;;;;;16.38;5.75;;;;;;;9.57;55.83;102439.22;4962711;28;20037;-67
2021/11/20 03:17:10;;;;;;;15.93;5.32;;;;;;;9.47;56.03;102437.56;4966300;28;20104;-68
2021/11/20 03:19:46;;;;;;;19.98;6.68;;;;;;;9.62;55.45;102437.41;4976406;28;20038;-69
2021/11/20 03:22:19;;;;;;;18.55;5.30;;;;;;;9.72;55.35;102433.81;4959404;28;20042;-67
2021/11/20 03:24:45;;;;;;;16.00;6.32;;;;;;;9.39;56.13;102420.25;4977485;28;20153;-66
2021/11/20 03:27:11;;;;;;;15.27;4.28;;;;;;;9.51;55.93;102423.59;4990528;28;20125;-68
2021/11/20 03:29:37;;;;;;;13.50;5.68;;;;;;;8.49;59.16;102432.25;4983796;28;20030;-67
2021/11/20 03:32:05;;;;;;;13.40;5.60;;;;;;;9.32;56.65;102421.19;4981324;28;20037;-67
2021/11/20 03:34:33;;;;;;;14.43;6.07;;;;;;;9.18;56.70;102418.69;4976134;28;20301;-67
2021/11/20 03:37:00;;;;;;;17.77;6.03;;;;;;;9.25;56.55;102419.50;4998684;28;20145;-68
2021/11/20 03:39:33;;;;;;;15.23;7.63;;;;;;;8.85;57.98;102416.38;4982130;28;20041;-69
2021/11/20 03:42:01;;;;;;;10.52;5.40;;;;;;;9.17;57.08;102413.50;4984839;28;20060;-67
2021/11/20 03:44:27;;;;;;;12.73;6.22;;;;;;;9.29;56.89;102413.38;5005048;28;20749;-68
2021/11/20 03:46:56;;;;;;;15.77;6.45;;;;;;;9.24;56.77;102420.38;4970345;28;20459;-68
2021/11/20 03:49:26;;;;;;;14.70;6.03;;;;;;;9.26;56.76;102418.63;4965604;28;20388;-68
2021/11/20 03:51:52;;;;;;;17.33;6.90;;;;;;;8.86;58.40;102418.13;4988418;28;20495;-68
2021/11/20 03:54:18;;;;;;;15.02;6.22;;;;;;;9.31;56.82;102414.22;5005401;28;20117;-67
2021/11/20 03:56:44;;;;;;;19.75;7.47;;;;;;;9.03;57.71;102410.16;4986876;28;20599;-68
2021/11/20 03:59:10;;;;;;;14.40;6.55;;;;;;;9.18;56.78;102404.78;4986901;28;20038;-68
2021/11/20 04:01:36;;;;;;;16.42;6.90;;;;;;;9.50;56.14;102401.88;4989650;28;20038;-67
2021/11/20 04:04:04;;;;;;;14.55;6.93;;;;;;;9.28;56.74;102400.38;4986271;28;20670;-66
2021/11/20 04:06:29;;;;;;;14.38;7.35;;;;;;;9.33;56.63;102398.56;5001905;28;20106;-67
2021/11/20 04:09:02;;;;;;;13.05;7.32;;;;;;;9.08;57.34;102397.94;4986938;28;20089;-67
2021/11/20 04:11:31;;;;;;;20.25;7.57;;;;;;;9.11;57.29;102397.91;4977947;28;20079;-67
2021/11/20 04:13:59;;;;;;;14.25;8.15;;;;;;;9.21;57.30;102391.75;4976403;28;20048;-69
2021/11/20 04:16:29;;;;;;;21.63;7.53;;;;;;;9.57;55.95;102402.66;4991741;28;20512;-68
2021/11/20 04:18:57;;;;;;;10.30;6.60;;;;;;;9.15;57.18;102389.19;4987036;28;20138;-68
2021/11/20 04:21:24;;;;;;;17.73;7.57;;;;;;;9.19;56.99;102391.75;4990749;28;20488;-67
2021/11/20 04:23:51;;;;;;;24.63;6.38;;;;;;;9.26;57.16;102391.69;4972692;28;20101;-67
2021/11/20 04:26:27;;;;;;;23.67;7.47;;;;;;;8.77;58.33;102390.41;4989398;28;20120;-68
2021/11/20 04:28:53;;;;;;;22.15;8.10;;;;;;;9.39;56.75;102388.94;5008135;28;20049;-67
2021/11/20 04:31:26;;;;;;;16.67;6.40;;;;;;;9.00;58.25;102373.69;4990592;28;20079;-67
2021/11/20 04:33:53;;;;;;;18.23;6.95;;;;;;;9.26;56.72;102376.88;4988272;28;21193;-67
2021/11/20 04:36:21;;;;;;;19.25;6.75;;;;;;;9.40;56.58;102377.59;4990590;28;20065;-67
2021/11/20 04:38:46;;;;;;;16.42;7.78;;;;;;;9.40;56.74;102368.91;4992684;28;20037;-67
2021/11/20 04:41:13;;;;;;;21.20;6.65;;;;;;;8.93;57.69;102362.44;4968417;28;20030;-67
2021/11/20 04:43:42;;;;;;;11.73;5.55;;;;;;;9.28;56.96;102375.13;4988466;28;20049;-67
2021/11/20 04:46:10;;;;;;;12.88;5.53;;;;;;;9.78;55.37;102360.59;5007406;28;20048;-67
2021/11/20 04:48:36;;;;;;;15.07;5.68;;;;;;;9.09;57.19;102363.16;4989573;28;20045;-67
2021/11/20 04:51:02;;;;;;;19.52;5.15;;;;;;;9.55;56.16;102360.91;4995418;28;20025;-67
2021/11/20 04:53:30;;;;;;;15.13;6.65;;;;;;;9.11;57.65;102357.03;4987243;28;20480;-67
2021/11/20 04:55:58;;;;;;;17.10;5.97;;;;;;;8.96;58.01;102363.28;4974371;28;20038;-67
2021/11/20 04:58:26;;;;;;;21.20;6.38;;;;;;;9.10;57.63;102355.31;4987141;28;20546;-67
2021/11/20 05:00:56;;;;;;;11.27;6.00;;;;;;;9.13;57.04;102354.41;4970035;28;20029;-67
2021/11/20 05:03:29;;;;;;;12.90;7.03;;;;;;;8.95;58.10;102361.53;4972275;28;20128;-67
2021/11/20 05:05:56;;;;;;;12.57;6.53;;;;;;;9.57;56.18;102355.69;4990145;28;20044;-67
2021/11/20 05:08:22;;;;;;;14.48;6.30;;;;;;;9.09;57.58;102353.56;4972293;28;20460;-69
2021/11/20 05:10:53;;;;;;;10.75;6.82;;;;;;;9.01;57.70;102349.31;4992140;28;20514;-67
2021/11/20 05:13:21;;;;;;;17.77;7.03;;;;;;;9.20;57.26;102350.84;5004645;28;20061;-67
2021/11/20 05:15:51;;;;;;;15.07;6.47;;;;;;;9.04;57.43;102344.94;4988555;28;20894;-66
2021/11/20 05:18:17;;;;;;;16.40;7.85;;;;;;;8.91;58.04;102340.72;5005636;28;20053;-67
2021/11/20 05:21:13;;;;;;;17.55;7.03;;;;;;;9.19;57.30;102343.94;4998923;28;20025;-67
2021/11/20 05:23:42;;;;;;;16.17;7.40;;;;;;;9.28;56.70;102343.81;4977964;28;20725;-67
2021/11/20 05:26:11;;;;;;;15.18;6.38;;;;;;;9.22;57.23;102343.88;4969018;28;20117;-67
2021/11/20 05:28:39;;;;;;;13.45;7.65;;;;;;;9.35;56.75;102348.09;4989859;28;20042;-68
2021/11/20 05:31:05;;;;;;;24.15;8.32;;;;;;;9.44;56.77;102343.66;4987801;28;20123;-66
2021/11/20 05:33:41;;;;;;;15.05;7.60;;;;;;;9.06;57.69;102342.31;4968023;28;20105;-67
2021/11/20 05:36:10;;;;;;;18.73;8.23;;;;;;;9.09;57.46;102334.47;4985996;28;20030;-68
2021/11/20 05:38:36;;;;;;;13.18;7.43;;;;;;;9.36;56.84;102335.91;4966689;28;20411;-68
2021/11/20 05:41:04;;;;;;;18.27;8.68;;;;;;;8.77;58.53;102340.84;4987454;28;20124;-69
2021/11/20 05:43:42;;;;;;;14.95;7.82;;;;;;;8.18;60.46;102343.00;4984465;28;20042;-70
2021/11/20 05:46:16;;;;;;;22.15;7.43;;;;;;;8.74;58.91;102335.69;4985394;28;20040;-69
2021/11/20 05:48:41;;;;;;;16.10;6.97;;;;;;;8.92;58.47;102335.50;4984009;28;20129;-66
2021/11/20 05:51:08;;;;;;;19.92;7.22;;;;;;;8.96;57.86;102336.31;4985784;28;20120;-67
2021/11/20 05:53:36;;;;;;;16.58;7.03;;;;;;;9.07;57.52;102338.81;4971936;28;20041;-68
2021/11/20 05:56:04;;;;;;;15.45;7.53;;;;;;;9.13;57.18;102338.78;4948373;28;1139450;-67
2021/11/20 05:58:40;;;;;;;24.15;6.22;;;;;;;9.36;56.62;102344.56;4986671;28;20221;-68
2021/11/20 06:01:09;;;;;;;11.52;6.07;;;;;;;9.64;55.62;102328.59;5005429;28;20131;-67
2021/11/20 06:03:36;;;;;;;14.85;6.53;;;;;;;9.31;56.75;102335.09;4974582;28;20061;-67
2021/11/20 06:06:02;;;;;;;11.98;6.05;;;;;;;9.30;56.29;102326.41;4981054;28;20064;-68
2021/11/20 06:08:29;;;;;;;14.00;6.85;;;;;;;8.98;57.16;102327.63;4977549;28;20045;-68
2021/11/20 06:10:58;;;;;;;12.40;5.13;;;;;;;9.53;55.48;102333.09;4995950;28;20048;-68
2021/11/20 06:13:26;;;;;;;14.05;5.63;;;;;;;9.19;56.40;102331.75;4976511;28;20067;-67
2021/11/20 06:16:00;;;;;;;16.17;6.18;;;;;;;9.56;55.27;102328.69;4996303;28;20036;-67
2021/11/20 06:18:28;;;;;;;10.35;6.57;;;;;;;9.27;55.98;102333.41;4984972;28;20084;-67
2021/11/20 06:20:55;;;;;;;16.55;5.70;;;;;;;9.04;56.79;102331.03;4987882;28;20030;-68
2021/11/20 06:23:23;;;;;;;8.68;4.72;;;;;;;8.56;58.07;102324.50;4983893;28;20049;-67
2021/11/20 06:25:53;;;;;;;13.45;5.07;;;;;;;8.98;57.06;102330.22;4980410;28;20037;-65
2021/11/20 06:28:19;;;;;;;11.57;5.25;;;;;;;9.21;55.91;102331.72;4984534;28;20144;-67
2021/11/20 06:30:45;;;;;;;12.32;5.78;;;;;;;8.96;57.03;102326.78;4984589;28;20124;-68
2021/11/20 06:33:11;;;;;;;15.60;6.97;;;;;;;9.25;56.06;102322.97;5002036;28;20038;-67
2021/11/20 06:35:49;;;;;;;8.30;4.95;;;;;;;8.84;57.13;102324.28;4987465;28;20498;-68
2021/11/20 06:38:20;;;;;;;16.47;7.60;;;;;;;8.61;57.69;102316.63;4984740;28;20045;-66
2021/11/20 06:40:49;;;;;;;12.82;5.78;;;;;;;8.22;58.84;102315.22;4985270;28;21012;-68
2021/11/20 06:43:18;;;;;;;10.25;5.15;;;;;;;9.33;55.68;102323.75;4969259;28;20045;-67
2021/11/20 06:45:47;;;;;;;17.17;6.55;;;;;;;8.81;57.17;102326.91;4983102;28;20042;-66
2021/11/20 06:48:14;;;;;;;13.90;6.75;;;;;;;9.00;56.74;102327.59;4983885;28;20041;-68
2021/11/20 06:50:46;;;;;;;10.93;6.32;;;;;;;9.13;56.39;102326.59;4984308;28;20478;-68
2021/11/20 06:53:31;;;;;;;18.77;6.22;;;;;;;9.18;56.20;102334.34;5001831;28;20088;-68
2021/11/20 06:56:28;;;;;;;12.25;5.72;;;;;;;8.80;57.39;102335.59;4921855;28;20039;-68
2021/11/20 07:02:33;;;;;;;9.20;5.47;;;;;;;9.58;55.19;102331.28;4991495;28;20111;-69
2021/11/20 07:04:59;;;;;;;11.75;6.05;;;;;;;9.12;55.93;102332.69;4984697;28;20120;-69
2021/11/20 07:07:27;;;;;;;12.75;5.25;;;;;;;9.68;54.89;102332.03;5000778;28;20137;-68
2021/11/20 07:09:53;;;;;;;11.23;5.68;;;;;;;9.24;55.99;102331.69;4982753;28;20033;-69
2021/11/20 07:12:19;;;;;;;12.02;5.78;;;;;;;9.61;55.16;102336.50;4984268;28;20050;-68
2021/11/20 07:14:45;;;;;;;10.43;6.88;;;;;;;9.43;55.00;102329.72;4985520;28;20034;-68
2021/11/20 07:17:13;;;;;;;10.60;6.22;;;;;;;9.29;55.73;102332.50;4986216;28;20046;-67
2021/11/20 07:19:51;;;;;;;15.55;6.85;;;;;;;9.45;55.22;102316.66;4996122;28;20077;-68
2021/11/20 07:22:35;;;;;;;20.23;6.60;;;;;;;8.94;56.15;102323.31;4989298;28;20236;-68
2021/11/20 07:25:10;;;;;;;10.13;5.43;;;;;;;8.76;57.32;102318.25;4973264;28;20034;-69
2021/11/20 07:27:36;;;;;;;17.25;7.28;;;;;;;9.40;55.37;102317.56;4987706;28;20050;-67
2021/11/20 07:30:04;;;;;;;16.65;6.60;;;;;;;9.09;56.10;102321.41;4987747;28;20040;-67
2021/11/20 07:32:43;;;;;;;17.02;7.32;;;;;;;9.37;55.36;102307.19;5006847;28;20041;-68
2021/11/20 07:35:10;;;;;;;10.73;6.07;;;;;;;8.38;58.28;102306.38;4989076;28;20088;-68
2021/11/20 07:37:35;;;;;;;12.20;6.03;;;;;;;8.87;57.24;102311.19;4963762;28;20046;-68
2021/11/20 07:40:04;;;;;;;15.57;6.97;;;;;;;9.28;55.96;102303.84;4971144;28;20407;-68
2021/11/20 07:42:29;;;;;;;13.07;7.00;;;;;;;9.18;56.05;102314.34;5006338;28;20133;-67
2021/11/20 07:45:24;;;;;;;15.88;8.38;;;;;;;9.04;56.57;102302.34;5006460;28;20545;-65
2021/11/20 07:48:12;;;;;;;16.05;6.28;;;;;;;9.12;56.30;102305.72;4971780;28;20215;-67
2021/11/20 07:50:39;;;;;;;9.55;5.80;;;;;;;9.70;54.59;102305.03;4997647;28;20048;-68
2021/11/20 07:53:11;;;;;;;16.42;7.00;;;;;;;9.53;54.84;102312.22;4985334;28;20068;-68
2021/11/20 07:55:37;;;;;;;13.15;5.50;;;;;;;9.46;55.39;102302.75;4989264;28;20509;-68
2021/11/20 07:58:04;;;;;;;14.13;6.13;;;;;;;9.08;56.34;102288.41;4984795;28;20685;-69
2021/11/20 08:00:30;;;;;;;14.63;6.72;;;;;;;8.86;56.96;102299.06;5006198;28;20026;-67
2021/11/20 08:03:03;;;;;;;10.43;6.28;;;;;;;9.10;56.29;102295.31;4984652;28;20435;-66
2021/11/20 08:05:51;;;;;;;10.48;5.95;;;;;;;9.55;54.99;102294.78;5005647;28;20115;-66
2021/11/20 08:08:39;;;;;;;11.75;5.68;;;;;;;9.64;54.75;102294.66;4983862;28;20046;-69
2021/11/20 08:11:18;;;;;;;16.58;6.43;;;;;;;9.71;54.06;102291.09;4972404;28;20044;-68
2021/11/20 08:13:45;;;;;;;12.65;6.13;;;;;;;9.36;55.13;102284.56;4986852;28;20495;-69
2021/11/20 08:16:40;;;;;;;12.70;5.55;;;;;;;9.63;54.43;102286.84;4977580;28;20069;-68
2021/11/20 08:19:23;;;;;;;11.50;5.18;;;;;;;9.66;54.20;102282.47;4988336;28;20068;-68
2021/11/20 08:22:04;;;;;;;12.20;5.68;;;;;;;9.25;54.69;102270.78;4969972;28;20157;-67
2021/11/20 08:24:34;;;;;;;8.07;5.13;;;;;;;9.68;53.69;102279.81;4986578;28;20042;-67
2021/11/20 08:27:00;;;;;;;10.98;5.35;;;;;;;9.07;55.28;102265.78;4985834;28;20284;-68
2021/11/20 08:29:30;;;;;;;11.65;5.60;;;;;;;9.03;54.97;102256.28;4987506;28;20048;-67
2021/11/20 08:31:57;;;;;;;8.77;5.22;;;;;;;9.15;54.58;102251.78;4986150;28;20042;-69
2021/11/20 08:34:47;;;;;;;14.55;4.90;;;;;;;8.79;55.50;102255.69;4970894;28;20050;-67
2021/11/20 08:37:38;;;;;;;11.48;5.45;;;;;;;8.68;56.39;102257.50;4973302;28;20076;-67
2021/11/20 08:40:18;;;;;;;14.90;5.93;;;;;;;9.42;54.11;102261.91;5007177;28;20083;-67
2021/11/20 08:42:45;;;;;;;14.55;6.07;;;;;;;8.71;56.65;102262.69;4989154;28;20744;-66
2021/11/20 08:45:19;;;;;;;12.63;7.88;;;;;;;9.02;55.83;102250.19;4989311;28;20061;-67
2021/11/20 08:47:48;;;;;;;16.20;7.50;;;;;;;9.26;55.11;102249.06;5002814;28;20500;-67
2021/11/20 08:50:19;;;;;;;13.45;7.18;;;;;;;9.37;54.96;102244.56;4973353;28;20073;-67
2021/11/20 08:52:45;;;;;;;12.95;6.97;;;;;;;9.20;55.61;102241.28;4986960;28;20096;-67
2021/11/20 08:55:13;;;;;;;13.32;7.43;;;;;;;9.12;55.63;102243.13;4991347;28;20042;-67
2021/11/20 08:57:41;;;;;;;14.95;7.50;;;;;;;8.69;56.92;102233.16;4986901;28;20034;-67
2021/11/20 09:00:36;;;;;;;15.68;8.65;;;;;;;9.30;55.40;102226.41;4974183;28;20104;-67
2021/11/20 09:03:43;;;;;;;18.85;9.50;;;;;;;9.00;56.32;102225.03;5002432;28;20030;-67
2021/11/20 09:06:24;;;;;;;11.35;6.90;;;;;;;9.11;55.77;102225.75;4988007;28;20495;-67
2021/11/20 09:09:04;;;;;;;15.40;8.20;;;;;;;9.32;55.44;102222.00;4960281;28;20431;-67
2021/11/20 09:11:45;;;;;;;14.43;8.20;;;;;;;9.74;54.10;102223.13;4967241;28;20042;-66
2021/11/20 09:14:25;;;;;;;12.68;8.10;;;;;;;9.71;53.82;102220.59;4977659;28;20080;-68
2021/11/20 09:17:12;;;;;;;14.30;8.02;;;;;;;9.40;54.90;102217.56;5002251;28;20046;-68
2021/11/20 09:19:40;;;;;;;18.05;9.02;;;;;;;9.34;54.93;102212.41;4988591;28;20044;-67
2021/11/20 09:22:06;;;;;;;16.05;8.63;;;;;;;9.69;54.64;102211.91;4984009;28;20042;-67
2021/11/20 09:24:58;;;;;;;14.30;8.27;;;;;;;9.31;55.48;102207.25;4975450;28;20050;-67
2021/11/20 09:27:27;;;;;;;14.77;9.88;;;;;;;9.42;55.18;102196.66;5006183;28;20080;-67
2021/11/20 09:29:54;;;;;;;25.40;9.63;;;;;;;9.56;54.86;102202.53;4986651;28;20025;-68
2021/11/20 09:32:20;;;;;;;17.42;9.98;;;;;;;9.38;55.14;102203.66;4980125;28;20042;-67
2021/11/20 09:34:48;;;;;;;15.48;8.63;;;;;;;8.96;56.44;102206.81;4985741;28;20040;-67
2021/11/20 09:37:33;;;;;;;14.48;8.77;;;;;;;9.63;54.53;102208.53;4971990;28;20062;-67
2021/11/20 09:40:16;;;;;;;17.00;9.13;;;;;;;9.31;55.64;102213.31;4974717;28;20033;-68
2021/11/20 09:42:46;;;;;;;17.85;9.57;;;;;;;9.22;55.93;102213.44;4970217;28;20423;-67
2021/11/20 09:45:18;;;;;;;14.57;8.88;;;;;;;9.65;54.42;102212.84;4986277;28;20034;-69
2021/11/20 09:47:55;;;;;;;17.70;9.25;;;;;;;9.87;53.92;102207.34;4981291;28;20664;-68
2021/11/20 09:50:28;;;;;;;22.25;10.27;;;;;;;9.48;55.03;102204.41;4986026;28;20095;-67
2021/11/20 09:52:54;;;;;;;18.02;9.65;;;;;;;9.68;54.27;102204.97;4986722;28;20140;-67
2021/11/20 09:55:29;;;;;;;20.48;8.20;;;;;;;9.87;53.50;102191.66;5005494;28;20109;-67
2021/11/20 09:58:05;;;;;;;15.75;7.80;;;;;;;9.44;54.79;102197.50;4986417;28;20049;-66
2021/11/20 10:00:54;;;;;;;12.43;7.70;;;;;;;9.55;54.37;102200.81;4989249;28;20046;-67
2021/11/20 10:03:25;;;;;;;20.05;8.85;;;;;;;9.29;54.63;102183.78;5003649;28;20826;-68
2021/11/20 10:06:04;;;;;;;14.20;8.52;;;;;;;9.45;54.70;102194.84;4986389;28;20434;-69
2021/11/20 10:08:31;;;;;;;15.63;8.18;;;;;;;9.31;55.01;102182.00;4979799;28;20142;-69
2021/11/20 10:11:33;;;;;;;12.82;8.15;;;;;;;9.38;54.47;102162.75;4999161;28;20041;-69
2021/11/20 10:14:03;;;;;;;14.33;7.83;;;;;;;8.88;55.98;102161.72;4973918;28;20403;-67
2021/11/20 10:16:44;;;;;;;16.58;8.45;;;;;;;9.49;53.79;102170.44;4967206;28;20064;-67
2021/11/20 10:19:17;;;;;;;13.13;8.25;;;;;;;9.05;54.96;102161.47;4965221;28;20570;-67
2021/11/20 10:21:57;;;;;;;16.48;8.27;;;;;;;8.96;55.22;102170.31;4983544;28;20034;-68
2021/11/20 10:24:32;;;;;;;15.10;8.77;;;;;;;9.28;54.28;102161.19;4999131;28;20148;-68
2021/11/20 10:27:16;;;;;;;13.15;7.57;;;;;;;8.61;56.83;102151.59;4964791;28;20184;-67
2021/11/20 10:30:09;;;;;;;12.70;7.80;;;;;;;9.23;54.78;102155.19;4999711;28;20772;-67
2021/11/20 10:32:49;;;;;;;18.23;8.93;;;;;;;8.66;56.13;102140.22;4980448;28;20038;-67
2021/11/20 10:35:59;;;;;;;18.67;9.20;;;;;;;9.21;54.97;102136.06;4983072;28;20035;-68
2021/11/20 10:38:28;;;;;;;16.67;8.68;;;;;;;9.07;54.71;102124.97;4974918;28;20099;-68
2021/11/20 10:41:04;;;;;;;15.80;8.07;;;;;;;9.01;55.35;102130.25;4999972;28;20107;-69
2021/11/20 10:43:49;;;;;;;12.70;9.10;;;;;;;9.73;53.14;102130.06;4979187;28;20133;-67
2021/11/20 10:46:32;;;;;;;17.33;10.25;;;;;;;9.50;53.87;102119.09;4996431;28;20053;-67
2021/11/20 10:49:16;;;;;;;19.90;9.65;;;;;;;8.96;55.29;102122.50;4982369;28;20060;-67
2021/11/20 10:51:48;;;;;;;19.15;10.15;;;;;;;9.42;54.08;102123.59;4957953;28;20046;-67
2021/11/20 10:54:43;;;;;;;23.95;9.52;;;;;;;9.22;54.52;102116.91;4971606;28;20034;-67
2021/11/20 10:57:30;;;;;;;16.75;8.80;;;;;;;9.14;54.59;102110.94;4978726;28;20176;-68
2021/11/20 11:00:34;;;;;;;15.95;9.32;;;;;;;9.11;55.04;102101.41;4980654;28;20080;-68
2021/11/20 11:03:18;;;;;;;14.63;8.90;;;;;;;8.75;55.89;102102.78;4979332;28;20045;-68
2021/11/20 11:06:15;;;;;;;16.80;9.27;;;;;;;8.79;55.88;102094.03;4999010;28;20042;-68
2021/11/20 11:09:19;;;;;;;14.77;9.07;;;;;;;9.31;54.17;102085.47;4980866;28;20053;-68
2021/11/20 11:11:53;;;;;;;24.92;9.48;;;;;;;9.15;54.95;102086.59;4900370;29;20051;-68
2021/11/20 11:15:04;;;;;;;15.65;9.07;;;;;;;9.02;55.13;102077.22;4957203;28;20038;-69
2021/11/20 11:17:41;;;;;;;15.00;9.52;;;;;;;8.90;55.69;102073.06;4999752;28;20050;-68
2021/11/20 11:20:33;;;;;;;19.80;10.18;;;;;;;9.00;55.17;102065.94;4961661;28;20048;-68
2021/11/20 11:23:15;;;;;;;14.10;9.88;;;;;;;8.87;55.14;102066.09;4965687;28;20058;-67
2021/11/20 11:25:58;;;;;;;17.77;9.93;;;;;;;9.26;54.07;102057.75;4982386;28;20056;-68
2021/11/20 11:28:34;;;;;;;20.50;10.43;;;;;;;8.81;55.86;102060.13;4997970;28;20045;-67
2021/11/20 11:31:26;;;;;;;15.70;9.73;;;;;;;9.12;55.07;102055.31;4983084;28;20038;-66
2021/11/20 11:34:00;;;;;;;18.58;10.93;;;;;;;8.79;55.64;102057.56;4980754;28;20046;-68
2021/11/20 11:36:44;;;;;;;20.63;10.65;;;;;;;8.93;55.26;102055.59;5000309;28;20099;-68
2021/11/20 11:39:34;;;;;;;19.85;11.18;;;;;;;9.19;54.92;102049.16;4968191;28;20107;-68
2021/11/20 11:42:20;;;;;;;16.17;10.57;;;;;;;9.49;54.08;102045.16;4980412;28;20088;-68
2021/11/20 11:45:04;;;;;;;17.88;10.40;;;;;;;9.10;55.42;102031.91;4981357;28;20128;-68
2021/11/20 11:47:53;;;;;;;19.50;11.07;;;;;;;8.48;57.43;102029.25;4972582;28;20045;-68
2021/11/20 11:50:56;;;;;;;19.52;11.65;;;;;;;8.74;56.56;102030.69;4984487;28;20124;-68
2021/11/20 11:53:32;;;;;;;19.10;10.93;;;;;;;8.70;56.74;102021.16;4982952;28;20145;-68
2021/11/20 11:56:04;;;;;;;26.02;12.35;;;;;;;9.05;55.82;102006.75;4980120;28;20040;-67
2021/11/20 11:58:30;;;;;;;23.63;11.50;;;;;;;9.07;55.85;102002.38;5002927;28;20500;-68
2021/11/20 12:01:10;;;;;;;20.23;12.20;;;;;;;8.64;57.30;102003.84;4986673;28;20045;-67